createdAt,value
2019-03-17T00:01:12.866Z,5.65
2019-03-17T00:03:39.824Z,5.73
2019-03-17T00:06:07.909Z,5.70
2019-03-17T00:08:35.014Z,5.66
2019-03-17T00:11:02.376Z,5.70
2019-03-17T00:13:29.342Z,5.81
2019-03-17T00:15:56.384Z,5.77
2019-03-17T00:18:23.423Z,5.57
2019-03-17T00:20:50.223Z,5.64
2019-03-17T00:23:17.164Z,5.49
2019-03-17T00:25:45.978Z,5.52
2019-03-17T00:28:12.810Z,5.46
2019-03-17T00:30:39.758Z,5.45
2019-03-17T00:33:06.643Z,5.58
2019-03-17T00:35:33.436Z,5.65
2019-03-17T00:38:00.656Z,5.67
2019-03-17T00:40:28.078Z,5.66
2019-03-17T00:42:55.334Z,5.60
2019-03-17T00:45:22.453Z,5.57
2019-03-17T00:47:49.559Z,5.65
2019-03-17T00:50:16.550Z,5.55
2019-03-17T00:52:43.898Z,5.62
2019-03-17T00:55:10.998Z,5.76
2019-03-17T00:57:37.762Z,5.85
2019-03-17T01:00:12.469Z,5.92
2019-03-17T01:02:40.007Z,5.97
2019-03-17T01:05:07.733Z,5.98
2019-03-17T01:07:34.959Z,5.89
2019-03-17T01:10:02.593Z,5.90
2019-03-17T01:12:29.866Z,6.01
2019-03-17T01:14:56.943Z,6.03
2019-03-17T01:17:23.704Z,5.89
2019-03-17T01:19:50.467Z,5.85
2019-03-17T01:22:17.662Z,5.94
2019-03-17T01:24:44.604Z,5.98
2019-03-17T01:27:11.757Z,5.95
2019-03-17T01:29:38.525Z,5.70
2019-03-17T01:32:05.343Z,5.72
2019-03-17T01:34:32.123Z,5.77
2019-03-17T01:36:58.936Z,5.77
2019-03-17T01:39:26.020Z,5.80
2019-03-17T01:41:52.867Z,5.64
2019-03-17T01:44:19.733Z,5.54
2019-03-17T01:46:46.552Z,5.63
2019-03-17T01:49:13.330Z,5.75
2019-03-17T01:51:42.514Z,5.70
2019-03-17T01:54:09.478Z,5.58
2019-03-17T01:56:36.766Z,5.63
2019-03-17T01:59:03.661Z,5.75
2019-03-17T02:01:30.474Z,5.67
2019-03-17T02:03:57.256Z,5.56
2019-03-17T02:06:24.143Z,5.71
2019-03-17T02:08:50.926Z,5.83
2019-03-17T02:11:17.827Z,5.76
2019-03-17T02:13:44.986Z,5.69
2019-03-17T02:16:11.788Z,5.71
2019-03-17T02:18:38.624Z,5.66
2019-03-17T02:21:05.552Z,5.67
2019-03-17T02:23:32.530Z,5.43
2019-03-17T02:25:59.702Z,5.44
2019-03-17T02:28:26.731Z,5.41
2019-03-17T02:30:53.611Z,5.40
2019-03-17T02:33:20.659Z,5.47
2019-03-17T02:35:47.447Z,5.55
2019-03-17T02:38:14.445Z,5.68
2019-03-17T02:40:41.343Z,5.80
2019-03-17T02:43:08.694Z,5.85
2019-03-17T02:45:35.477Z,5.98
2019-03-17T02:48:02.487Z,6.06
2019-03-17T02:50:31.774Z,6.12
2019-03-17T02:52:58.637Z,6.01
2019-03-17T02:55:25.838Z,5.97
2019-03-17T02:57:52.592Z,5.90
2019-03-17T03:00:19.536Z,5.92
2019-03-17T03:02:46.423Z,5.99
2019-03-17T03:05:13.256Z,6.05
2019-03-17T03:07:42.121Z,6.06
2019-03-17T03:10:09.966Z,6.00
2019-03-17T03:12:37.100Z,5.92
2019-03-17T03:15:07.443Z,5.93
2019-03-17T03:17:34.185Z,5.94
2019-03-17T03:20:01.209Z,5.93
2019-03-17T03:22:28.483Z,5.94
2019-03-17T03:24:55.255Z,6.05
2019-03-17T03:27:25.427Z,6.08
2019-03-17T03:29:52.719Z,6.04
2019-03-17T03:32:19.601Z,5.93
2019-03-17T03:34:46.911Z,5.88
2019-03-17T03:37:14.180Z,5.89
2019-03-17T03:39:41.165Z,5.88
2019-03-17T03:42:08.025Z,5.81
2019-03-17T03:44:34.907Z,5.74
2019-03-17T03:47:01.928Z,5.81
2019-03-17T03:49:29.051Z,5.85
2019-03-17T03:51:56.702Z,5.83
2019-03-17T03:54:23.832Z,5.67
2019-03-17T03:56:52.142Z,5.71
2019-03-17T03:59:19.096Z,5.66
2019-03-17T04:01:46.376Z,5.68
2019-03-17T04:04:13.710Z,5.70
2019-03-17T04:06:41.100Z,5.57
2019-03-17T04:09:07.987Z,5.57
2019-03-17T04:11:34.726Z,5.59
2019-03-17T04:14:03.726Z,5.61
2019-03-17T04:16:30.477Z,5.64
2019-03-17T04:18:58.039Z,5.64
2019-03-17T04:21:25.528Z,5.58
2019-03-17T04:23:52.463Z,5.50
2019-03-17T04:26:19.420Z,5.50
2019-03-17T04:28:46.976Z,5.68
2019-03-17T04:31:14.843Z,5.62
2019-03-17T04:33:42.211Z,5.49
2019-03-17T04:36:09.003Z,5.37
2019-03-17T04:38:36.087Z,5.33
2019-03-17T04:41:03.003Z,5.40
2019-03-17T04:43:29.998Z,5.51
2019-03-17T04:45:56.908Z,5.36
2019-03-17T04:48:24.412Z,5.33
2019-03-17T04:50:51.258Z,5.35
2019-03-17T04:53:18.019Z,5.43
2019-03-17T04:55:44.818Z,5.40
2019-03-17T04:58:11.630Z,5.31
2019-03-17T05:00:38.528Z,5.30
2019-03-17T05:03:05.283Z,5.32
2019-03-17T05:05:32.056Z,5.20
2019-03-17T05:07:58.937Z,5.13
2019-03-17T05:10:26.260Z,5.15
2019-03-17T05:12:53.198Z,5.05
2019-03-17T05:15:19.976Z,5.02
2019-03-17T05:17:47.118Z,4.95
2019-03-17T05:20:13.985Z,4.90
2019-03-17T05:22:40.859Z,4.84
2019-03-17T05:25:08.214Z,4.84
2019-03-17T05:27:34.978Z,4.89
2019-03-17T05:30:04.943Z,4.94
2019-03-17T05:32:31.719Z,5.00
2019-03-17T05:34:58.965Z,5.01
2019-03-17T05:37:26.024Z,4.90
2019-03-17T05:39:53.619Z,4.84
2019-03-17T05:42:20.399Z,4.89
2019-03-17T05:44:47.380Z,4.90
2019-03-17T05:47:14.146Z,4.97
2019-03-17T05:49:40.894Z,4.98
2019-03-17T05:52:07.741Z,4.97
2019-03-17T05:54:34.490Z,5.01
2019-03-17T05:57:02.253Z,4.96
2019-03-17T05:59:29.367Z,4.89
2019-03-17T06:01:56.938Z,4.83
2019-03-17T06:04:24.407Z,4.87
2019-03-17T06:06:51.230Z,4.87
2019-03-17T06:09:18.115Z,4.86
2019-03-17T06:11:44.979Z,4.88
2019-03-17T06:14:12.188Z,5.02
2019-03-17T06:16:39.124Z,5.13
2019-03-17T06:19:05.978Z,5.21
2019-03-17T06:21:32.864Z,5.16
2019-03-17T06:23:59.809Z,5.16
2019-03-17T06:26:26.800Z,5.04
2019-03-17T06:28:53.651Z,5.09
2019-03-17T06:31:20.433Z,5.01
2019-03-17T06:33:47.343Z,5.16
2019-03-17T06:36:14.283Z,5.18
2019-03-17T06:38:41.377Z,5.13
2019-03-17T06:41:08.650Z,5.16
2019-03-17T06:43:35.645Z,5.16
2019-03-17T06:46:02.482Z,5.25
2019-03-17T06:48:29.493Z,5.32
2019-03-17T06:50:56.434Z,5.45
2019-03-17T06:53:23.406Z,5.67
2019-03-17T06:55:50.285Z,5.84
2019-03-17T06:58:17.111Z,5.86
2019-03-17T07:00:44.471Z,5.80
2019-03-17T07:03:11.425Z,5.82
2019-03-17T07:05:38.936Z,5.91
2019-03-17T07:08:07.276Z,5.97
2019-03-17T07:10:34.273Z,5.97
2019-03-17T07:13:01.345Z,5.90
2019-03-17T07:15:28.398Z,5.98
2019-03-17T07:17:55.234Z,6.10
2019-03-17T07:20:22.102Z,6.27
2019-03-17T07:22:48.907Z,6.49
2019-03-17T07:25:15.791Z,6.65
2019-03-17T07:27:42.588Z,6.77
2019-03-17T07:30:14.506Z,6.77
2019-03-17T07:32:41.376Z,6.82
2019-03-17T07:35:08.463Z,6.82
2019-03-17T07:37:35.317Z,6.83
2019-03-17T07:40:07.193Z,6.82
2019-03-17T07:42:34.476Z,6.81
2019-03-17T07:45:01.252Z,6.92
2019-03-17T07:47:28.150Z,7.00
2019-03-17T07:49:54.930Z,7.09
2019-03-17T07:52:22.024Z,7.23
2019-03-17T07:54:49.215Z,7.44
2019-03-17T07:57:16.106Z,7.65
2019-03-17T07:59:43.526Z,7.78
2019-03-17T08:02:10.669Z,7.91
2019-03-17T08:04:42.425Z,8.15
2019-03-17T08:07:06.137Z,8.48
2019-03-17T08:09:32.891Z,8.81
2019-03-17T08:12:00.019Z,9.16
2019-03-17T08:14:27.215Z,9.54
2019-03-17T08:16:53.972Z,10.17
2019-03-17T08:19:20.869Z,10.73
2019-03-17T08:21:48.191Z,11.14
2019-03-17T08:24:15.127Z,11.57
2019-03-17T08:26:42.116Z,11.82
2019-03-17T08:29:09.485Z,12.04
2019-03-17T08:31:36.312Z,12.21
2019-03-17T08:34:03.302Z,12.39
2019-03-17T08:36:30.060Z,12.53
2019-03-17T08:38:56.900Z,12.69
2019-03-17T08:41:23.728Z,12.87
2019-03-17T08:43:54.493Z,12.98
2019-03-17T08:46:20.953Z,13.11
2019-03-17T08:48:47.843Z,13.29
2019-03-17T08:51:14.683Z,13.30
2019-03-17T08:53:41.715Z,13.47
2019-03-17T08:56:08.456Z,13.62
2019-03-17T08:58:35.642Z,13.68
2019-03-17T09:01:02.770Z,13.82
2019-03-17T09:03:29.682Z,14.09
2019-03-17T09:05:56.587Z,14.42
2019-03-17T09:08:34.158Z,14.70
2019-03-17T09:10:52.859Z,14.89
2019-03-17T09:13:19.907Z,15.04
2019-03-17T09:15:47.508Z,15.27
2019-03-17T09:18:14.788Z,15.34
2019-03-17T09:20:41.895Z,15.39
2019-03-17T09:23:08.714Z,15.40
2019-03-17T09:25:35.583Z,15.44
2019-03-17T09:28:02.602Z,15.44
2019-03-17T09:30:29.476Z,15.69
2019-03-17T09:32:56.623Z,15.95
2019-03-17T09:35:23.992Z,16.19
2019-03-17T09:37:50.763Z,16.27
2019-03-17T09:40:19.188Z,16.28
2019-03-17T09:42:45.958Z,16.28
2019-03-17T09:45:14.709Z,16.33
2019-03-17T09:47:44.945Z,16.38
2019-03-17T09:50:14.114Z,16.37
2019-03-17T09:52:40.927Z,16.46
2019-03-17T09:55:08.670Z,16.57
2019-03-17T09:57:35.936Z,16.71
2019-03-17T10:00:13.480Z,16.91
2019-03-17T10:02:40.697Z,17.09
2019-03-17T10:05:09.106Z,17.39
2019-03-17T10:07:36.133Z,17.19
2019-03-17T10:10:12.731Z,17.18
2019-03-17T10:12:40.068Z,17.00
2019-03-17T10:15:11.397Z,16.83
2019-03-17T10:17:38.438Z,16.62
2019-03-17T10:20:12.880Z,16.27
2019-03-17T10:22:40.029Z,16.06
2019-03-17T10:25:09.617Z,15.99
2019-03-17T10:27:36.524Z,16.34
2019-03-17T10:30:14.760Z,16.63
2019-03-17T10:32:41.876Z,16.98
2019-03-17T10:35:08.925Z,17.43
2019-03-17T10:37:36.207Z,17.78
2019-03-17T10:40:13.527Z,17.53
2019-03-17T10:42:40.426Z,17.44
2019-03-17T10:45:09.924Z,17.27
2019-03-17T10:47:37.319Z,17.50
2019-03-17T10:50:13.031Z,17.99
2019-03-17T10:52:40.180Z,17.95
2019-03-17T10:55:08.963Z,17.73
2019-03-17T10:57:36.456Z,17.77
2019-03-17T11:00:21.379Z,17.94
2019-03-17T11:02:48.410Z,17.88
2019-03-17T11:05:15.728Z,17.47
2019-03-17T11:07:43.147Z,17.30
2019-03-17T11:10:13.542Z,17.44
2019-03-17T11:12:40.549Z,17.51
2019-03-17T11:15:19.001Z,17.96
2019-03-17T11:17:45.855Z,18.17
2019-03-17T11:20:13.746Z,18.46
2019-03-17T11:22:41.047Z,18.36
2019-03-17T11:25:15.291Z,18.04
2019-03-17T11:27:43.822Z,17.64
2019-03-17T11:30:16.240Z,17.44
2019-03-17T11:32:43.095Z,16.97
2019-03-17T11:35:10.268Z,16.44
2019-03-17T11:37:37.348Z,16.22
2019-03-17T11:40:12.956Z,16.01
2019-03-17T11:42:39.777Z,15.83
2019-03-17T11:45:14.336Z,15.88
2019-03-17T11:47:42.615Z,15.62
2019-03-17T11:50:15.856Z,15.43
2019-03-17T11:52:42.964Z,15.22
2019-03-17T11:55:11.024Z,15.08
2019-03-17T11:57:38.434Z,15.00
2019-03-17T12:00:16.038Z,14.94
2019-03-17T12:02:42.854Z,14.89
2019-03-17T12:05:10.215Z,14.80
2019-03-17T12:07:37.083Z,14.60
2019-03-17T12:10:16.889Z,14.63
2019-03-17T12:12:43.986Z,14.67
2019-03-17T12:15:26.781Z,14.45
2019-03-17T12:17:54.035Z,14.50
2019-03-17T12:20:21.114Z,14.47
2019-03-17T12:22:49.889Z,14.89
2019-03-17T12:25:18.059Z,14.90
2019-03-17T12:27:45.117Z,15.05
2019-03-17T12:30:20.481Z,14.85
2019-03-17T12:32:48.872Z,14.59
2019-03-17T12:35:16.254Z,14.42
2019-03-17T12:37:45.329Z,14.13
2019-03-17T12:40:12.547Z,13.99
2019-03-17T12:42:39.620Z,13.95
2019-03-17T12:45:08.811Z,13.80
2019-03-17T12:47:37.387Z,13.73
2019-03-17T12:50:12.757Z,13.61
2019-03-17T12:52:40.214Z,13.49
2019-03-17T12:55:07.857Z,13.24
2019-03-17T12:57:34.815Z,12.94
2019-03-17T13:00:10.463Z,12.70
2019-03-17T13:02:40.279Z,12.19
2019-03-17T13:05:08.533Z,11.71
2019-03-17T13:07:35.547Z,11.49
2019-03-17T13:10:15.873Z,11.34
2019-03-17T13:12:41.419Z,11.14
2019-03-17T13:15:10.978Z,10.87
2019-03-17T13:17:37.738Z,10.71
2019-03-17T13:20:15.766Z,10.57
2019-03-17T13:22:43.193Z,10.42
2019-03-17T13:25:11.375Z,10.27
2019-03-17T13:27:38.511Z,10.09
2019-03-17T13:30:13.570Z,9.90
2019-03-17T13:32:40.351Z,9.74
2019-03-17T13:35:09.174Z,9.64
2019-03-17T13:37:36.302Z,9.59
2019-03-17T13:40:28.714Z,9.54
2019-03-17T13:42:48.164Z,9.31
2019-03-17T13:45:15.612Z,9.21
2019-03-17T13:47:42.590Z,9.13
2019-03-17T13:50:16.219Z,9.06
2019-03-17T13:52:43.252Z,8.99
2019-03-17T13:55:10.236Z,8.92
2019-03-17T13:57:38.521Z,8.92
2019-03-17T14:00:10.536Z,8.87
2019-03-17T14:02:37.709Z,8.90
2019-03-17T14:05:04.877Z,8.77
2019-03-17T14:07:31.778Z,8.75
2019-03-17T14:09:58.737Z,8.79
2019-03-17T14:12:26.072Z,8.60
2019-03-17T14:14:52.956Z,8.37
2019-03-17T14:17:20.068Z,8.27
2019-03-17T14:19:47.229Z,8.11
2019-03-17T14:22:17.131Z,8.04
2019-03-17T14:24:43.944Z,7.86
2019-03-17T14:27:10.800Z,8.07
2019-03-17T14:29:37.906Z,7.90
2019-03-17T14:32:05.029Z,7.89
2019-03-17T14:34:32.219Z,7.66
2019-03-17T14:36:59.214Z,7.62
2019-03-17T14:39:26.387Z,7.51
2019-03-17T14:41:53.296Z,7.32
2019-03-17T14:44:20.221Z,7.48
2019-03-17T14:46:47.360Z,7.56
2019-03-17T14:49:14.119Z,7.55
2019-03-17T14:51:40.868Z,7.57
2019-03-17T14:54:07.838Z,7.54
2019-03-17T14:56:34.744Z,7.55
2019-03-17T14:59:03.786Z,7.65
2019-03-17T15:01:30.684Z,7.71
2019-03-17T15:03:58.078Z,7.85
2019-03-17T15:06:25.195Z,7.82
2019-03-17T15:08:51.996Z,7.78
2019-03-17T15:11:18.799Z,7.79
2019-03-17T15:13:46.168Z,7.75
2019-03-17T15:16:13.183Z,7.74
2019-03-17T15:18:40.253Z,7.75
2019-03-17T15:21:07.523Z,7.89
2019-03-17T15:23:34.530Z,8.01
2019-03-17T15:26:01.296Z,8.06
2019-03-17T15:28:28.889Z,8.20
2019-03-17T15:31:10.275Z,8.25
2019-03-17T15:33:24.601Z,8.23
2019-03-17T15:35:51.359Z,8.19
2019-03-17T15:38:18.219Z,8.32
2019-03-17T15:40:44.973Z,8.36
2019-03-17T15:43:11.837Z,8.16
2019-03-17T15:45:39.100Z,8.16
2019-03-17T15:48:05.993Z,8.10
2019-03-17T15:50:33.038Z,8.23
2019-03-17T15:53:00.322Z,8.04
2019-03-17T15:55:30.213Z,8.20
2019-03-17T15:57:57.087Z,8.25
2019-03-17T16:00:26.626Z,8.25
2019-03-17T16:02:53.998Z,8.23
2019-03-17T16:05:22.031Z,8.28
2019-03-17T16:07:48.997Z,8.25
2019-03-17T16:10:21.062Z,8.24
2019-03-17T16:12:51.795Z,8.24
2019-03-17T16:15:18.897Z,8.20
2019-03-17T16:17:46.363Z,8.22
2019-03-17T16:20:22.856Z,8.01
2019-03-17T16:22:49.729Z,7.94
2019-03-17T16:25:30.155Z,7.96
2019-03-17T16:27:57.200Z,7.93
2019-03-17T16:30:29.319Z,7.94
2019-03-17T16:32:56.315Z,7.89
2019-03-17T16:35:25.839Z,7.91
2019-03-17T16:37:55.820Z,7.91
2019-03-17T16:40:28.549Z,7.89
2019-03-17T16:42:55.534Z,7.83
2019-03-17T16:45:22.584Z,7.76
2019-03-17T16:47:50.030Z,7.73
2019-03-17T16:50:20.711Z,7.75
2019-03-17T16:52:47.651Z,7.73
2019-03-17T16:55:15.892Z,7.69
2019-03-17T16:57:43.040Z,7.66
2019-03-17T17:00:19.598Z,7.48
2019-03-17T17:02:47.935Z,7.34
2019-03-17T17:05:17.981Z,7.32
2019-03-17T17:07:45.533Z,7.27
2019-03-17T17:10:21.107Z,7.21
2019-03-17T17:12:48.201Z,7.14
2019-03-17T17:15:30.866Z,6.96
2019-03-17T17:17:58.297Z,6.95
2019-03-17T17:20:40.101Z,7.00
2019-03-17T17:23:06.877Z,7.05
2019-03-17T17:25:34.244Z,7.07
2019-03-17T17:28:02.096Z,6.98
2019-03-17T17:30:28.985Z,7.01
2019-03-17T17:32:56.209Z,6.95
2019-03-17T17:35:23.258Z,7.05
2019-03-17T17:37:50.050Z,7.08
2019-03-17T17:40:23.485Z,7.06
2019-03-17T17:42:50.571Z,7.03
2019-03-17T17:45:24.508Z,7.04
2019-03-17T17:47:51.636Z,7.00
2019-03-17T17:50:23.589Z,6.98
2019-03-17T17:52:50.746Z,7.04
2019-03-17T17:55:17.760Z,7.03
2019-03-17T17:57:45.002Z,7.16
2019-03-17T18:00:19.497Z,7.16
2019-03-17T18:02:46.467Z,7.09
2019-03-17T18:05:13.723Z,7.03
2019-03-17T18:07:40.806Z,6.96
2019-03-17T18:10:11.761Z,6.97
2019-03-17T18:12:38.552Z,6.90
2019-03-17T18:15:14.875Z,6.87
2019-03-17T18:17:42.123Z,6.86
2019-03-17T18:20:11.928Z,6.90
2019-03-17T18:22:38.864Z,6.91
2019-03-17T18:25:17.074Z,6.93
2019-03-17T18:27:44.016Z,6.88
2019-03-17T18:30:23.903Z,6.92
2019-03-17T18:32:53.225Z,6.84
2019-03-17T18:35:20.232Z,6.82
2019-03-17T18:37:51.225Z,6.76
2019-03-17T18:40:24.598Z,6.70
2019-03-17T18:42:51.887Z,6.68
2019-03-17T18:45:29.668Z,6.70
2019-03-17T18:47:58.974Z,6.78
2019-03-17T18:50:25.818Z,6.80
2019-03-17T18:52:52.801Z,6.84
2019-03-17T18:55:19.610Z,6.71
2019-03-17T18:57:46.577Z,6.72
2019-03-17T19:00:21.566Z,6.71
2019-03-17T19:02:48.657Z,6.66
2019-03-17T19:05:19.633Z,6.69
2019-03-17T19:07:45.640Z,6.79
2019-03-17T19:10:18.741Z,6.78
2019-03-17T19:12:46.404Z,6.72
2019-03-17T19:15:19.881Z,6.69
2019-03-17T19:17:50.371Z,6.62
2019-03-17T19:20:19.314Z,6.66
2019-03-17T19:22:46.372Z,6.75
2019-03-17T19:25:17.919Z,6.71
2019-03-17T19:27:45.311Z,6.72
2019-03-17T19:30:16.238Z,6.69
2019-03-17T19:32:44.229Z,6.67
2019-03-17T19:35:11.354Z,6.56
2019-03-17T19:37:41.809Z,6.47
2019-03-17T19:40:16.104Z,6.51
2019-03-17T19:42:44.073Z,6.65
2019-03-17T19:45:11.555Z,6.52
2019-03-17T19:47:39.169Z,6.51
2019-03-17T19:50:15.183Z,6.41
2019-03-17T19:52:42.290Z,6.47
2019-03-17T19:55:10.585Z,6.47
2019-03-17T19:57:37.475Z,6.40
2019-03-17T20:00:19.278Z,6.37
2019-03-17T20:02:47.762Z,6.34
2019-03-17T20:05:15.229Z,6.34
2019-03-17T20:07:42.060Z,6.47
2019-03-17T20:10:28.379Z,6.51
2019-03-17T20:12:56.373Z,6.45
2019-03-17T20:15:23.555Z,6.38
2019-03-17T20:17:50.311Z,6.45
2019-03-17T20:20:17.315Z,6.38
2019-03-17T20:22:44.167Z,6.34
2019-03-17T20:25:11.515Z,6.33
2019-03-17T20:27:38.399Z,6.22
2019-03-17T20:30:16.324Z,6.25
2019-03-17T20:32:43.630Z,6.25
2019-03-17T20:35:12.032Z,6.22
2019-03-17T20:37:38.916Z,6.25
2019-03-17T20:40:10.458Z,6.23
2019-03-17T20:42:37.319Z,6.31
2019-03-17T20:45:07.467Z,6.31
2019-03-17T20:47:34.379Z,6.20
2019-03-17T20:50:01.877Z,6.14
2019-03-17T20:52:29.096Z,6.12
2019-03-17T20:54:56.240Z,6.16
2019-03-17T20:57:22.992Z,6.12
2019-03-17T20:59:50.485Z,6.09
2019-03-17T21:02:17.596Z,6.13
2019-03-17T21:04:44.396Z,6.08
2019-03-17T21:07:12.884Z,6.15
2019-03-17T21:09:39.868Z,5.98
2019-03-17T21:12:06.942Z,5.90
2019-03-17T21:14:33.711Z,5.91
2019-03-17T21:17:00.652Z,5.97
2019-03-17T21:19:28.092Z,5.94
2019-03-17T21:21:55.083Z,5.91
2019-03-17T21:24:21.840Z,5.97
2019-03-17T21:26:49.101Z,5.95
2019-03-17T21:29:16.074Z,5.93
2019-03-17T21:31:43.373Z,5.88
2019-03-17T21:34:10.284Z,5.93
2019-03-17T21:36:38.826Z,5.90
2019-03-17T21:39:06.448Z,5.94
2019-03-17T21:41:34.107Z,5.89
2019-03-17T21:44:00.927Z,5.84
2019-03-17T21:46:28.123Z,5.81
2019-03-17T21:48:54.875Z,5.70
2019-03-17T21:51:21.648Z,5.79
2019-03-17T21:53:48.445Z,5.78
2019-03-17T21:56:15.596Z,5.78
2019-03-17T21:58:42.399Z,5.74
2019-03-17T22:01:09.159Z,5.78
2019-03-17T22:03:35.937Z,5.85
2019-03-17T22:06:03.359Z,5.83
2019-03-17T22:08:31.434Z,5.71
2019-03-17T22:10:58.371Z,5.71
2019-03-17T22:13:25.258Z,5.73
2019-03-17T22:15:52.001Z,5.70
2019-03-17T22:18:18.766Z,5.71
2019-03-17T22:20:45.501Z,5.76
2019-03-17T22:23:12.355Z,5.81
2019-03-17T22:25:39.219Z,5.81
2019-03-17T22:28:08.505Z,5.89
2019-03-17T22:30:35.481Z,5.84
2019-03-17T22:33:02.427Z,5.83
2019-03-17T22:35:29.493Z,5.81
2019-03-17T22:37:56.786Z,5.79
2019-03-17T22:40:23.620Z,5.78
2019-03-17T22:42:50.375Z,5.70
2019-03-17T22:45:17.655Z,5.69
2019-03-17T22:47:44.827Z,5.62
2019-03-17T22:50:15.135Z,5.65
2019-03-17T22:52:42.438Z,5.74
2019-03-17T22:55:10.394Z,5.75
2019-03-17T22:57:37.160Z,5.74
2019-03-17T23:00:09.778Z,5.75
2019-03-17T23:02:36.877Z,5.73
2019-03-17T23:05:06.787Z,5.70
2019-03-17T23:07:33.648Z,5.67
2019-03-17T23:10:00.569Z,5.73
2019-03-17T23:12:27.384Z,5.77
2019-03-17T23:14:54.153Z,5.81
2019-03-17T23:17:20.905Z,5.78
2019-03-17T23:19:48.075Z,5.83
2019-03-17T23:22:14.838Z,5.86
2019-03-17T23:24:41.747Z,5.82
2019-03-17T23:27:08.745Z,5.85
2019-03-17T23:29:35.668Z,5.85
2019-03-17T23:32:03.587Z,5.82
2019-03-17T23:34:30.846Z,5.77
2019-03-17T23:36:57.760Z,5.85
2019-03-17T23:39:24.845Z,5.86
2019-03-17T23:41:51.936Z,5.85
2019-03-17T23:44:19.042Z,5.80
2019-03-17T23:46:45.981Z,5.76
2019-03-17T23:49:12.843Z,5.74
2019-03-17T23:51:39.634Z,5.75
2019-03-17T23:54:06.424Z,5.75
2019-03-17T23:56:33.589Z,5.76
2019-03-17T23:59:00.355Z,5.70
